Time;durP1;ratioP1;P1;durP2;ratioP2;P2;SDS_P1;SDS_P2;PMS_P1;PMS_P2;Temp;Humidity;BMP_temperature;BMP_pressure;BME280_temperature;BME280_humidity;BME280_pressure;Samples;Min_cycle;Max_cycle;Signal;HPM_P1;HPM_P2
2022/08/08 00:01:43;;;;;;;20.02;3.83;;;;;;;51.71;12.92;100812.22;5081830;28;20094;-61
2022/08/08 00:04:34;;;;;;;6.82;2.20;;;;;;;54.39;10.60;100794.00;5085482;28;20119;-62
2022/08/08 00:07:18;;;;;;;7.50;2.28;;;;;;;52.06;12.52;100805.31;5086563;28;20119;-61
2022/08/08 00:10:24;;;;;;;4.28;2.20;;;;;;;48.27;15.83;100814.00;5091924;28;20028;-62
2022/08/08 00:12:53;;;;;;;5.68;2.10;;;;;;;50.91;13.68;100805.94;5068588;28;20123;-62
2022/08/08 00:15:28;;;;;;;5.68;2.03;;;;;;;52.36;12.47;100805.00;5091854;28;20036;-62
2022/08/08 00:18:00;;;;;;;4.35;1.98;;;;;;;49.51;14.46;100806.47;5091608;28;20470;-62
2022/08/08 00:20:46;;;;;;;3.00;1.80;;;;;;;48.51;15.91;100805.56;5092974;28;20043;-62
2022/08/08 00:23:26;;;;;;;5.65;1.58;;;;;;;47.61;16.69;100809.78;5089333;28;20042;-61
2022/08/08 00:25:57;;;;;;;11.82;1.70;;;;;;;45.85;18.07;100797.00;5092723;28;20032;-61
2022/08/08 00:28:32;;;;;;;6.25;1.52;;;;;;;47.59;16.47;100795.13;5092518;28;20032;-59
2022/08/08 00:31:01;;;;;;;5.68;1.40;;;;;;;47.97;16.16;100794.38;5092353;28;20722;-60
2022/08/08 00:33:31;;;;;;;23.48;1.92;;;;;;;49.16;15.07;100790.63;5092204;28;20034;-61
2022/08/08 00:36:36;;;;;;;12.77;1.80;;;;;;;47.49;16.60;100792.44;5090487;28;20028;-61
2022/08/08 00:39:10;;;;;;;4.30;1.23;;;;;;;47.68;16.50;100787.00;5048978;28;20033;-60
2022/08/08 00:42:15;;;;;;;10.30;1.40;;;;;;;48.47;16.08;100786.94;5084503;28;20486;-59
2022/08/08 00:45:02;;;;;;;6.22;1.20;;;;;;;49.21;15.64;100786.94;5059480;28;20056;-61
2022/08/08 00:47:58;;;;;;;4.15;1.55;;;;;;;47.09;17.29;100792.84;5080677;28;20040;-60
2022/08/08 00:50:58;;;;;;;9.30;1.60;;;;;;;46.21;17.78;100789.72;5084418;28;20490;-62
2022/08/08 00:53:34;;;;;;;3.85;1.90;;;;;;;44.05;20.55;100793.06;5082996;28;20124;-62
2022/08/08 00:56:28;;;;;;;15.85;2.58;;;;;;;44.18;20.54;100789.91;5085464;28;20035;-60
2022/08/08 00:59:23;;;;;;;3.65;1.83;;;;;;;44.89;19.52;100780.03;5102480;28;20028;-61
2022/08/08 01:02:14;;;;;;;11.13;2.60;;;;;;;43.53;21.01;100780.41;5083927;28;20054;-63
2022/08/08 01:05:07;;;;;;;4.07;2.42;;;;;;;43.00;21.60;100784.03;5086807;28;20036;-61
2022/08/08 01:07:50;;;;;;;5.47;1.70;;;;;;;42.78;21.67;100790.84;5085926;28;20131;-62
2022/08/08 01:10:17;;;;;;;7.30;2.63;;;;;;;42.75;22.27;100788.19;5087493;28;20059;-62
2022/08/08 01:13:02;;;;;;;7.38;2.20;;;;;;;42.90;21.83;100791.88;5086298;28;20013;-59
2022/08/08 01:15:57;;;;;;;10.02;1.83;;;;;;;42.97;21.60;100793.59;5086249;28;20035;-62
2022/08/08 01:19:09;;;;;;;6.75;1.90;;;;;;;42.84;22.38;100788.88;5085207;28;20036;-62
2022/08/08 01:22:13;;;;;;;5.88;2.63;;;;;;;42.51;21.92;100788.94;5086514;28;20048;-62
2022/08/08 01:25:10;;;;;;;11.10;3.88;;;;;;;41.44;23.31;100793.19;5087361;28;20443;-61
2022/08/08 01:27:56;;;;;;;9.38;2.30;;;;;;;41.39;23.55;100785.28;5088670;28;20044;-62
2022/08/08 01:31:01;;;;;;;10.77;2.25;;;;;;;42.54;21.87;100790.03;5088942;28;20048;-62
2022/08/08 01:33:38;;;;;;;13.98;1.90;;;;;;;42.22;22.63;100800.97;5088784;28;20047;-63
2022/08/08 01:36:42;;;;;;;15.35;2.00;;;;;;;41.22;23.74;100801.88;5086701;28;20033;-63
2022/08/08 01:39:24;;;;;;;6.20;2.00;;;;;;;41.21;23.62;100793.81;5044885;28;20128;-62
2022/08/08 01:42:15;;;;;;;10.10;2.70;;;;;;;40.73;24.26;100802.75;5091505;28;20040;-61
2022/08/08 01:45:24;;;;;;;12.57;3.60;;;;;;;40.29;24.71;100799.28;5089261;28;20032;-61
2022/08/08 01:48:11;;;;;;;9.55;2.83;;;;;;;40.55;24.15;100804.75;5012610;28;20727;-61
2022/08/08 01:51:07;;;;;;;6.65;1.45;;;;;;;40.02;25.13;100810.53;5097713;27;20036;-61
2022/08/08 01:54:08;;;;;;;8.27;1.70;;;;;;;39.77;25.29;100806.56;5085843;28;20021;-61
2022/08/08 01:56:54;;;;;;;14.18;2.00;;;;;;;39.51;26.35;100807.97;5092490;28;20039;-61
2022/08/08 01:59:29;;;;;;;7.80;1.30;;;;;;;39.40;26.56;100813.22;5087250;28;20051;-61
2022/08/08 02:02:27;;;;;;;5.00;1.30;;;;;;;38.92;27.82;100812.44;5088604;28;20044;-59
2022/08/08 02:05:00;;;;;;;6.05;1.52;;;;;;;38.84;27.99;100813.97;5089945;28;20082;-61
2022/08/08 02:07:36;;;;;;;10.52;1.58;;;;;;;38.49;29.33;100821.59;5088288;28;20036;-61
2022/08/08 02:10:10;;;;;;;7.97;1.73;;;;;;;38.20;29.90;100821.69;5097460;27;20040;-63
2022/08/08 02:12:43;;;;;;;14.98;1.80;;;;;;;38.00;30.53;100825.50;5088957;28;20032;-62
2022/08/08 02:15:25;;;;;;;8.88;1.88;;;;;;;37.74;31.28;100824.66;5088558;28;20043;-63
2022/08/08 02:17:57;;;;;;;9.27;1.50;;;;;;;37.55;31.92;100831.25;5086863;28;20085;-61
2022/08/08 02:20:36;;;;;;;6.00;1.52;;;;;;;37.44;32.51;100834.38;5088464;28;20337;-61
2022/08/08 02:23:30;;;;;;;12.18;2.35;;;;;;;37.24;33.27;100842.19;5101105;27;20036;-62
2022/08/08 02:26:09;;;;;;;8.43;2.70;;;;;;;37.12;33.97;100842.91;5088474;28;20043;-62
2022/08/08 02:29:15;;;;;;;11.88;3.30;;;;;;;36.80;34.61;100844.53;5100485;27;20654;-61
2022/08/08 02:32:14;;;;;;;16.15;2.78;;;;;;;36.71;35.19;100850.00;5087227;28;20037;-66
2022/08/08 02:35:02;;;;;;;9.50;1.92;;;;;;;36.57;35.95;100850.34;5091093;28;20390;-61
2022/08/08 02:37:48;;;;;;;11.00;2.00;;;;;;;36.29;36.38;100866.72;5090198;28;20113;-63
2022/08/08 02:40:34;;;;;;;9.20;1.63;;;;;;;36.09;36.73;100865.13;5087863;28;20060;-65
2022/08/08 02:43:46;;;;;;;14.05;2.28;;;;;;;36.00;37.24;100871.38;5089244;28;20537;-61
2022/08/08 02:46:35;;;;;;;6.22;1.60;;;;;;;35.95;37.93;100871.91;5082020;28;20036;-62
2022/08/08 02:49:48;;;;;;;6.95;1.55;;;;;;;35.85;38.14;100875.75;5079117;28;20078;-63
2022/08/08 02:52:26;;;;;;;8.35;1.40;;;;;;;35.63;38.65;100876.13;5088485;28;20074;-62
2022/08/08 02:55:11;;;;;;;10.02;2.03;;;;;;;35.56;38.62;100878.31;5081392;28;20130;-63
2022/08/08 02:57:59;;;;;;;7.85;1.73;;;;;;;35.56;38.65;100896.09;5098925;28;20034;-60
2022/08/08 03:00:56;;;;;;;10.93;1.95;;;;;;;35.46;39.19;100885.75;5080922;28;20059;-63
2022/08/08 03:03:45;;;;;;;12.60;1.85;;;;;;;35.26;38.97;100885.69;5082378;28;20072;-61
2022/08/08 03:06:28;;;;;;;9.02;1.58;;;;;;;35.29;39.37;100900.97;5085888;28;20127;-61
2022/08/08 03:09:32;;;;;;;12.55;2.10;;;;;;;35.21;39.84;100902.34;5081009;28;20119;-58
2022/08/08 03:12:11;;;;;;;6.82;1.50;;;;;;;34.99;40.96;100907.53;5071768;28;20038;-61
2022/08/08 03:14:50;;;;;;;7.22;1.30;;;;;;;34.96;41.39;100912.00;5106845;28;20044;-61
2022/08/08 03:17:20;;;;;;;7.40;1.38;;;;;;;34.88;41.62;100913.34;5102361;28;20523;-62
2022/08/08 03:22:51;;;;;;;6.95;1.67;;;;;;;34.69;42.38;100925.31;5088397;28;20036;-62
2022/08/08 03:25:25;;;;;;;12.77;1.75;;;;;;;34.56;42.75;100933.56;5088427;28;20042;-60
2022/08/08 03:28:01;;;;;;;8.57;1.83;;;;;;;34.52;42.77;100930.00;5083727;28;20111;-63
2022/08/08 03:30:32;;;;;;;11.02;1.90;;;;;;;34.45;42.27;100924.41;5082100;28;20028;-63
2022/08/08 03:33:18;;;;;;;12.57;2.03;;;;;;;34.54;42.47;100928.34;5087079;28;20027;-62
2022/08/08 03:35:50;;;;;;;12.07;1.42;;;;;;;34.41;43.10;100937.78;5086307;28;20032;-63
2022/08/08 03:38:21;;;;;;;6.43;1.40;;;;;;;34.28;43.48;100937.50;5087459;28;20071;-62
2022/08/08 03:40:54;;;;;;;11.82;1.75;;;;;;;34.28;43.14;100940.34;5084572;28;20039;-62
2022/08/08 03:43:24;;;;;;;13.93;1.85;;;;;;;34.23;43.11;100944.44;5089413;28;20048;-62
2022/08/08 03:46:04;;;;;;;7.20;1.45;;;;;;;33.99;42.81;100925.78;5091154;28;20498;-62
2022/08/08 03:48:32;;;;;;;8.30;1.65;;;;;;;34.01;42.98;100950.75;5090874;28;20070;-61
2022/08/08 03:51:05;;;;;;;20.33;2.00;;;;;;;34.02;42.83;100955.97;5088606;28;20021;-61
2022/08/08 03:53:36;;;;;;;10.18;1.45;;;;;;;33.78;43.27;100946.53;5086307;28;20101;-64
2022/08/08 03:56:03;;;;;;;12.60;1.80;;;;;;;33.70;43.71;100953.44;5070876;28;20123;-64
2022/08/08 03:58:30;;;;;;;8.35;1.38;;;;;;;33.61;43.69;100962.41;5073113;28;20093;-61
2022/08/08 04:01:04;;;;;;;6.65;1.42;;;;;;;33.61;43.67;100967.25;5083950;28;20096;-61
2022/08/08 04:03:35;;;;;;;10.45;1.60;;;;;;;33.51;44.38;100976.59;5084360;28;20619;-63
2022/08/08 04:06:05;;;;;;;6.22;1.40;;;;;;;33.45;44.09;100983.88;5083491;28;20035;-61
2022/08/08 04:08:35;;;;;;;8.43;1.60;;;;;;;33.38;44.70;100981.91;5087528;28;20486;-60
2022/08/08 04:11:08;;;;;;;8.13;1.20;;;;;;;33.38;45.07;100998.81;5085573;28;20105;-61
2022/08/08 04:13:36;;;;;;;8.38;1.40;;;;;;;33.32;44.98;100987.19;5087781;28;20047;-62
2022/08/08 04:16:03;;;;;;;7.47;1.52;;;;;;;33.33;45.25;100988.81;5085449;28;20035;-63
2022/08/08 04:18:34;;;;;;;7.15;1.30;;;;;;;33.22;45.70;100985.25;5085635;28;20036;-64
2022/08/08 04:21:00;;;;;;;9.15;1.70;;;;;;;33.16;45.57;100981.25;5084299;28;20185;-59
2022/08/08 04:23:28;;;;;;;14.02;1.80;;;;;;;33.17;46.05;100991.31;5087466;28;20027;-61
2022/08/08 04:25:55;;;;;;;8.60;1.45;;;;;;;33.09;45.71;100998.22;5102695;28;20028;-62
2022/08/08 04:28:22;;;;;;;8.18;1.75;;;;;;;32.93;46.50;100992.28;5082564;28;20391;-63
2022/08/08 04:30:49;;;;;;;5.88;1.30;;;;;;;32.96;46.87;101008.34;5082540;28;20052;-63
2022/08/08 04:33:15;;;;;;;8.93;1.70;;;;;;;32.87;47.12;101005.19;5080015;28;20036;-63
2022/08/08 04:35:43;;;;;;;4.72;1.30;;;;;;;32.86;46.87;101017.66;5085849;28;20051;-63
2022/08/08 04:38:10;;;;;;;4.22;1.45;;;;;;;32.91;45.88;101017.22;5102656;28;20116;-63
2022/08/08 04:40:41;;;;;;;6.07;1.50;;;;;;;32.86;45.67;101012.03;5088120;28;20029;-62
2022/08/08 04:43:08;;;;;;;4.57;1.25;;;;;;;32.84;45.81;101014.44;5098970;28;20059;-62
2022/08/08 04:45:40;;;;;;;4.65;1.25;;;;;;;32.71;45.57;101000.00;5086988;28;20032;-63
2022/08/08 04:48:06;;;;;;;9.57;1.60;;;;;;;32.79;45.11;101024.09;5089843;28;20123;-62
2022/08/08 04:50:36;;;;;;;3.85;1.10;;;;;;;32.77;44.55;101032.16;5085485;28;20410;-61
2022/08/08 04:53:04;;;;;;;5.82;1.50;;;;;;;32.81;44.57;101027.31;5085792;28;20033;-63
2022/08/08 04:55:33;;;;;;;5.00;1.52;;;;;;;32.75;44.24;101026.13;5089386;28;20020;-61
2022/08/08 04:58:00;;;;;;;5.47;1.50;;;;;;;32.65;44.09;101024.94;5085783;28;20031;-61
2022/08/08 05:00:27;;;;;;;5.75;1.50;;;;;;;32.65;43.67;101030.56;5087353;28;20058;-61
2022/08/08 05:02:54;;;;;;;8.27;1.73;;;;;;;32.74;43.40;101025.31;5088207;28;20031;-60
2022/08/08 05:05:21;;;;;;;8.35;2.13;;;;;;;32.78;43.23;101038.56;5088501;28;20043;-61
2022/08/08 05:07:48;;;;;;;3.05;1.38;;;;;;;32.74;43.62;101045.03;5088279;28;20028;-62
2022/08/08 05:10:15;;;;;;;9.35;1.58;;;;;;;32.65;44.17;101046.66;5089346;28;20615;-61
2022/08/08 05:12:42;;;;;;;4.80;1.60;;;;;;;32.62;44.74;101053.13;5097050;28;20177;-60
2022/08/08 05:15:10;;;;;;;4.10;1.40;;;;;;;32.60;44.75;101047.91;5086773;28;20024;-61
2022/08/08 05:17:37;;;;;;;4.15;1.48;;;;;;;32.63;45.25;101054.72;5102168;28;20504;-60
2022/08/08 05:20:04;;;;;;;3.10;1.33;;;;;;;32.55;45.64;101042.69;5087503;28;20036;-61
2022/08/08 05:22:37;;;;;;;4.78;1.30;;;;;;;32.49;45.41;101047.13;5086936;28;20047;-59
2022/08/08 05:25:05;;;;;;;5.88;1.77;;;;;;;32.53;45.54;101047.94;5089002;28;20024;-62
2022/08/08 05:27:32;;;;;;;5.40;1.40;;;;;;;32.43;46.29;101048.75;5086425;28;20020;-62
2022/08/08 05:29:59;;;;;;;3.70;1.20;;;;;;;32.46;46.45;101056.38;5085785;28;20500;-62
2022/08/08 05:32:32;;;;;;;4.43;1.52;;;;;;;32.38;46.97;101049.19;5088799;28;20035;-60
2022/08/08 05:35:01;;;;;;;3.22;1.20;;;;;;;32.31;47.26;101058.41;5088324;28;20542;-60
2022/08/08 05:37:34;;;;;;;5.30;1.50;;;;;;;32.32;47.39;101050.81;5085681;28;20035;-59
2022/08/08 05:40:06;;;;;;;3.75;1.50;;;;;;;32.25;48.08;101050.78;5084649;28;20043;-63
2022/08/08 05:42:48;;;;;;;3.47;1.38;;;;;;;32.20;47.81;101048.38;5088534;28;20044;-61
2022/08/08 05:45:16;;;;;;;7.40;1.58;;;;;;;32.09;48.09;101049.19;5084794;28;20029;-63
2022/08/08 05:47:45;;;;;;;3.83;1.30;;;;;;;32.08;49.13;101052.41;5083590;28;20035;-60
2022/08/08 05:50:13;;;;;;;5.20;1.50;;;;;;;32.04;48.83;101052.44;5082788;28;20115;-62
2022/08/08 05:52:40;;;;;;;5.22;1.33;;;;;;;32.03;49.34;101053.63;5086207;28;20487;-62
2022/08/08 05:55:08;;;;;;;4.25;1.65;;;;;;;31.98;49.40;101056.06;5101552;28;20530;-59
2022/08/08 05:57:38;;;;;;;5.47;1.45;;;;;;;31.94;49.08;101046.81;5083292;28;20048;-62
2022/08/08 06:00:10;;;;;;;4.53;1.40;;;;;;;31.98;48.94;101054.06;5086813;28;20119;-62
2022/08/08 06:03:10;;;;;;;4.95;1.25;;;;;;;31.97;48.22;101060.09;5083792;28;20124;-61
2022/08/08 06:06:05;;;;;;;3.95;1.30;;;;;;;31.97;48.63;101063.69;5081889;28;20098;-61
2022/08/08 06:08:43;;;;;;;4.00;1.45;;;;;;;31.82;48.85;101064.91;5088110;28;20042;-62
2022/08/08 06:11:11;;;;;;;5.68;1.60;;;;;;;31.78;49.04;101075.34;5085148;28;20024;-60
2022/08/08 06:13:38;;;;;;;4.55;1.45;;;;;;;31.74;48.86;101072.50;5088530;28;20024;-62
2022/08/08 06:16:06;;;;;;;4.45;1.50;;;;;;;31.77;48.71;101068.09;5091629;28;20035;-62
2022/08/08 06:19:00;;;;;;;7.77;1.40;;;;;;;31.78;48.16;101069.72;5074369;28;20446;-61
2022/08/08 06:21:29;;;;;;;3.53;1.40;;;;;;;31.74;48.12;101066.09;5091771;28;20032;-63
2022/08/08 06:23:56;;;;;;;11.85;1.80;;;;;;;31.86;47.22;101066.50;5085969;28;20030;-62
2022/08/08 06:26:35;;;;;;;4.93;1.40;;;;;;;31.75;46.98;101056.47;5094747;28;20036;-61
2022/08/08 06:29:05;;;;;;;10.70;1.67;;;;;;;31.71;46.90;101061.25;5092434;28;20036;-61
2022/08/08 06:31:36;;;;;;;6.85;1.40;;;;;;;31.75;46.64;101071.31;5089165;28;20038;-61
2022/08/08 06:34:16;;;;;;;5.80;1.40;;;;;;;31.84;46.28;101068.13;5102720;28;20032;-63
2022/08/08 06:36:45;;;;;;;5.47;1.67;;;;;;;31.71;46.68;101066.88;5104932;28;20487;-60
2022/08/08 06:39:13;;;;;;;7.22;1.40;;;;;;;31.74;46.54;101071.72;5087967;28;20115;-62
2022/08/08 06:41:52;;;;;;;3.22;1.38;;;;;;;31.79;46.41;101060.09;5092186;28;20051;-59
2022/08/08 06:44:22;;;;;;;2.63;1.30;;;;;;;31.75;46.93;101062.88;5091814;28;20043;-59
2022/08/08 06:46:54;;;;;;;9.10;1.63;;;;;;;31.77;46.92;101066.09;5073678;28;20082;-58
2022/08/08 06:49:21;;;;;;;4.93;1.30;;;;;;;31.72;46.68;101057.22;5088721;28;20136;-60
2022/08/08 06:51:48;;;;;;;3.70;1.42;;;;;;;31.71;46.25;101058.44;5087517;28;20024;-61
2022/08/08 06:54:20;;;;;;;2.63;1.35;;;;;;;31.71;46.15;101064.84;5086853;28;20089;-59
2022/08/08 06:56:50;;;;;;;5.18;1.58;;;;;;;31.57;46.65;101062.84;5091257;28;20024;-63
2022/08/08 06:59:18;;;;;;;7.15;1.60;;;;;;;31.73;45.74;101064.50;5084648;28;20040;-59
2022/08/08 07:01:59;;;;;;;5.47;1.38;;;;;;;31.69;45.46;101066.47;5081433;28;20059;-62
2022/08/08 07:04:53;;;;;;;5.15;1.65;;;;;;;31.84;44.22;101057.66;5076208;28;20098;-62
2022/08/08 07:07:41;;;;;;;5.30;1.58;;;;;;;31.68;44.82;101062.06;5073811;28;20129;-59
2022/08/08 07:10:10;;;;;;;11.80;1.92;;;;;;;31.65;44.61;101066.47;5080530;28;20029;-60
2022/08/08 07:12:45;;;;;;;8.18;1.35;;;;;;;31.66;45.03;101065.28;5094078;28;20089;-60
2022/08/08 07:15:16;;;;;;;5.05;1.73;;;;;;;31.57;45.06;101060.03;5079839;28;20028;-61
2022/08/08 07:17:49;;;;;;;3.78;1.33;;;;;;;31.56;45.13;101064.03;5082675;28;20033;-60
2022/08/08 07:20:26;;;;;;;3.13;1.30;;;;;;;31.49;45.75;101052.00;5084943;28;20035;-60
2022/08/08 07:23:25;;;;;;;56.92;2.92;;;;;;;31.43;46.18;101048.81;5096679;28;20056;-60
2022/08/08 07:25:58;;;;;;;5.50;1.38;;;;;;;31.41;45.99;101047.56;5076922;28;20044;-59
2022/08/08 07:28:26;;;;;;;2.92;1.20;;;;;;;31.32;45.88;101039.53;5086755;28;20049;-59
2022/08/08 07:30:57;;;;;;;4.35;1.17;;;;;;;31.36;45.45;101051.59;5090028;28;20435;-59
2022/08/08 07:33:27;;;;;;;3.60;1.10;;;;;;;31.40;45.67;101046.75;5086563;28;20036;-59
2022/08/08 07:35:56;;;;;;;2.15;1.23;;;;;;;31.37;46.14;101041.94;5086783;28;20032;-61
2022/08/08 07:38:24;;;;;;;5.75;1.05;;;;;;;31.33;46.63;101038.34;5088952;28;20069;-59
2022/08/08 07:41:03;;;;;;;3.05;0.95;;;;;;;31.34;47.21;101048.38;5090644;28;20087;-59
2022/08/08 07:43:33;;;;;;;3.80;1.10;;;;;;;31.24;48.02;101044.34;5091322;28;20102;-59
2022/08/08 07:46:00;;;;;;;5.60;1.38;;;;;;;31.23;48.53;101039.91;5086041;28;20390;-59
2022/08/08 07:48:28;;;;;;;8.82;1.50;;;;;;;31.14;48.59;101039.47;5091177;28;20044;-59
2022/08/08 07:50:59;;;;;;;5.82;1.10;;;;;;;31.07;49.41;101039.47;5091940;28;20035;-59
2022/08/08 07:53:30;;;;;;;5.97;1.42;;;;;;;31.07;49.20;101036.66;5086278;28;20040;-59
2022/08/08 07:56:01;;;;;;;4.82;1.20;;;;;;;31.06;49.43;101035.06;5090235;28;20034;-59
2022/08/08 07:58:37;;;;;;;4.32;1.23;;;;;;;31.02;49.49;101036.22;5098067;28;20514;-59
2022/08/08 08:01:10;;;;;;;5.05;1.20;;;;;;;30.97;49.26;101012.97;5088778;28;20108;-58
2022/08/08 08:03:49;;;;;;;1.98;1.00;;;;;;;30.95;49.14;101018.19;5090346;28;20559;-61
2022/08/08 08:06:21;;;;;;;6.47;1.42;;;;;;;30.95;49.04;101009.75;5080219;28;20044;-60
2022/08/08 08:09:04;;;;;;;4.65;1.52;;;;;;;30.99;48.53;101015.38;5087879;28;20036;-61
2022/08/08 08:11:35;;;;;;;4.18;1.30;;;;;;;31.02;48.45;101022.19;5088018;28;20028;-61
2022/08/08 08:14:05;;;;;;;6.80;1.40;;;;;;;31.10;48.68;101021.03;5091073;28;20028;-61
2022/08/08 08:16:39;;;;;;;4.95;1.40;;;;;;;30.97;48.40;101017.78;5091502;28;20470;-61
2022/08/08 08:19:08;;;;;;;6.47;1.17;;;;;;;31.01;48.66;101026.19;5082408;28;20560;-58
2022/08/08 08:21:40;;;;;;;2.97;1.40;;;;;;;30.89;49.16;101016.97;5090214;28;20443;-61
2022/08/08 08:24:09;;;;;;;4.95;1.13;;;;;;;30.90;49.49;101014.97;5084229;28;20128;-60
2022/08/08 08:26:36;;;;;;;5.22;1.40;;;;;;;30.87;49.37;101008.13;5084537;28;20398;-59
2022/08/08 08:29:04;;;;;;;3.10;1.00;;;;;;;30.77;49.40;101008.91;5082997;28;20478;-62
2022/08/08 08:31:33;;;;;;;2.17;1.05;;;;;;;30.73;50.13;101013.69;5085742;28;20024;-60
2022/08/08 08:34:01;;;;;;;6.55;1.23;;;;;;;30.76;49.88;101010.09;5089119;28;20024;-60
2022/08/08 08:36:28;;;;;;;9.15;1.42;;;;;;;30.67;50.39;100996.44;5090953;28;20032;-60
2022/08/08 08:38:56;;;;;;;7.50;1.58;;;;;;;30.60;50.27;100995.56;5095048;28;20039;-59
2022/08/08 08:41:32;;;;;;;7.35;1.23;;;;;;;30.65;50.46;100989.59;5088127;28;20084;-61
2022/08/08 08:44:01;;;;;;;4.75;1.25;;;;;;;30.53;50.62;100987.16;5087315;28;20032;-61
2022/08/08 08:46:29;;;;;;;4.05;1.23;;;;;;;30.54;50.86;100994.38;5079485;28;20509;-61
2022/08/08 08:48:57;;;;;;;2.95;1.27;;;;;;;30.51;50.97;100989.50;5079625;28;20150;-61
2022/08/08 08:51:28;;;;;;;5.75;1.52;;;;;;;30.56;50.87;101000.38;5087447;28;20085;-60
2022/08/08 08:54:01;;;;;;;;;;;;;;;30.47;51.20;100997.13;5087295;28;20115;-59
2022/08/08 08:56:37;;;;;;;4.40;1.13;;;;;;;30.56;51.12;100998.38;5091170;28;20018;-59
2022/08/08 08:59:14;;;;;;;5.75;1.40;;;;;;;30.58;50.82;100989.56;5076794;28;20028;-59
2022/08/08 09:01:48;;;;;;;3.75;1.38;;;;;;;30.43;51.57;100993.50;5087623;28;20087;-59
2022/08/08 09:04:35;;;;;;;4.78;1.63;;;;;;;30.44;51.65;100989.50;5078889;28;20039;-59
2022/08/08 09:07:08;;;;;;;5.03;2.00;;;;;;;30.36;52.32;100989.47;5078114;28;20044;-60
2022/08/08 09:09:36;;;;;;;4.68;2.10;;;;;;;30.24;52.38;100992.59;5089021;28;20036;-60
2022/08/08 09:12:10;;;;;;;14.10;7.53;;;;;;;30.26;52.93;100995.81;5076961;28;20028;-60
2022/08/08 09:14:41;;;;;;;19.52;10.90;;;;;;;30.21;53.47;100989.78;5091029;28;20036;-60
2022/08/08 09:17:09;;;;;;;24.48;10.68;;;;;;;30.13;53.93;100986.13;5077396;28;20128;-59
2022/08/08 09:19:36;;;;;;;22.80;10.38;;;;;;;30.02;54.23;100974.03;5087187;28;20024;-60
2022/08/08 09:22:05;;;;;;;19.80;9.65;;;;;;;30.02;54.35;100985.25;5077196;28;20058;-60
2022/08/08 09:24:34;;;;;;;17.08;8.10;;;;;;;29.94;55.14;100983.56;5113613;28;20064;-59
2022/08/08 09:27:08;;;;;;;14.65;7.60;;;;;;;29.90;55.45;100989.16;5078510;28;20035;-61
2022/08/08 09:29:46;;;;;;;19.55;7.05;;;;;;;29.93;55.20;100981.97;5087536;28;20079;-59
2022/08/08 09:32:17;;;;;;;23.90;5.80;;;;;;;29.85;56.25;100988.72;5077021;28;20043;-62
2022/08/08 09:34:50;;;;;;;12.27;4.47;;;;;;;29.76;56.42;100992.66;5080255;28;20040;-59
2022/08/08 09:37:22;;;;;;;7.53;3.40;;;;;;;29.77;56.56;100993.47;5086242;28;20519;-58
2022/08/08 09:40:05;;;;;;;9.07;3.63;;;;;;;29.73;56.68;100990.66;5074313;28;20043;-59
2022/08/08 09:42:35;;;;;;;9.25;3.45;;;;;;;29.71;57.06;101001.44;5084814;28;20047;-59
2022/08/08 09:45:08;;;;;;;9.82;3.33;;;;;;;29.68;57.22;100990.22;5085181;28;20501;-59
2022/08/08 09:47:40;;;;;;;8.23;3.42;;;;;;;29.62;57.53;100994.53;5075622;28;20032;-59
2022/08/08 09:50:12;;;;;;;12.02;3.50;;;;;;;29.50;57.44;100992.88;5087515;28;20033;-59
2022/08/08 09:52:42;;;;;;;8.85;3.60;;;;;;;29.62;57.92;101000.94;5085537;28;20500;-59
2022/08/08 09:55:09;;;;;;;13.95;3.78;;;;;;;29.51;58.35;101005.69;5096469;28;20036;-59
2022/08/08 09:57:40;;;;;;;10.20;4.97;;;;;;;29.47;58.00;101000.06;5095228;28;20043;-59
2022/08/08 10:00:09;;;;;;;10.75;4.70;;;;;;;29.47;59.09;100993.66;5081189;28;20055;-59
2022/08/08 10:02:42;;;;;;;10.48;4.13;;;;;;;29.44;59.46;100970.00;5086237;28;20132;-59
2022/08/08 10:05:15;;;;;;;7.80;4.00;;;;;;;29.37;59.39;100983.13;5089774;28;20502;-59
2022/08/08 10:07:54;;;;;;;9.55;3.60;;;;;;;29.27;60.10;100981.84;5079281;28;20036;-60
2022/08/08 10:10:34;;;;;;;18.95;3.38;;;;;;;29.23;60.27;100988.56;5088890;28;20063;-58
2022/08/08 10:13:25;;;;;;;8.38;3.30;;;;;;;29.25;59.47;100991.78;5088749;28;20067;-61
2022/08/08 10:15:55;;;;;;;14.75;4.40;;;;;;;29.31;60.01;101002.28;5070613;28;20069;-58
2022/08/08 10:18:26;;;;;;;12.73;3.80;;;;;;;29.39;61.00;101003.94;5088316;28;20348;-60
2022/08/08 10:21:08;;;;;;;11.82;2.85;;;;;;;29.38;61.01;100999.53;5086961;28;20031;-62
2022/08/08 10:23:35;;;;;;;8.63;2.83;;;;;;;29.38;61.41;101001.53;5090499;28;20154;-58
2022/08/08 10:26:04;;;;;;;36.65;4.88;;;;;;;29.40;61.90;101002.75;5095767;28;20474;-60
2022/08/08 10:28:32;;;;;;;9.23;2.35;;;;;;;29.42;62.23;101003.16;5086879;28;20081;-59
2022/08/08 10:32:30;;;;;;;50.47;4.45;;;;;;;29.43;62.67;101009.56;5087948;28;20039;-59
2022/08/08 10:33:52;;;;;;;12.75;3.10;;;;;;;29.33;63.40;100997.09;5078611;28;20059;-59
2022/08/08 10:36:23;;;;;;;11.52;3.10;;;;;;;29.37;63.05;101011.13;5088481;28;20075;-59
2022/08/08 10:38:52;;;;;;;7.70;2.60;;;;;;;29.39;64.44;101015.13;5086665;28;20028;-59
2022/08/08 10:41:25;;;;;;;10.68;2.60;;;;;;;29.37;64.59;101009.13;5080097;28;20487;-59
2022/08/08 10:43:52;;;;;;;5.88;2.20;;;;;;;29.36;65.21;101009.50;5091825;28;20483;-60
2022/08/08 10:46:25;;;;;;;5.78;2.40;;;;;;;29.30;65.99;101002.66;5081889;28;20024;-60
2022/08/08 10:48:54;;;;;;;5.32;2.42;;;;;;;29.21;65.97;100993.75;5083735;28;20037;-59
2022/08/08 10:51:36;;;;;;;8.07;2.60;;;;;;;29.24;65.97;100998.59;5090618;28;20020;-59
2022/08/08 10:54:02;;;;;;;16.27;3.20;;;;;;;29.25;66.50;101003.00;5091191;28;20032;-60
2022/08/08 10:56:33;;;;;;;8.18;2.75;;;;;;;29.18;66.51;101004.53;5094970;28;20119;-59
2022/08/08 10:59:02;;;;;;;6.05;2.60;;;;;;;29.19;66.69;101010.94;5082454;28;20085;-59
2022/08/08 11:01:30;;;;;;;7.65;2.33;;;;;;;29.14;66.70;101025.28;5091178;28;20367;-59
2022/08/08 11:03:59;;;;;;;5.05;2.28;;;;;;;29.07;67.64;101014.00;5078062;28;20028;-59
2022/08/08 11:06:30;;;;;;;7.82;2.20;;;;;;;29.08;68.05;101019.22;5094648;28;20067;-59
2022/08/08 11:09:06;;;;;;;5.10;2.33;;;;;;;29.03;68.17;101018.75;5082301;28;20398;-60
2022/08/08 11:11:38;;;;;;;5.03;2.55;;;;;;;29.03;68.97;101007.56;5091060;28;20119;-59
2022/08/08 11:14:06;;;;;;;9.20;3.10;;;;;;;29.04;69.44;101004.38;5079349;28;20032;-60
2022/08/08 11:16:41;;;;;;;8.43;3.28;;;;;;;28.99;70.05;101004.75;5085207;28;20056;-59
2022/08/08 11:19:07;;;;;;;;;;;;;;;28.95;70.72;101012.28;5088656;28;20032;-60
2022/08/08 11:21:40;;;;;;;8.82;3.58;;;;;;;28.92;70.71;101013.06;5077893;28;19913;-60
2022/08/08 11:24:08;;;;;;;10.88;4.30;;;;;;;28.93;71.09;101020.28;5094430;28;20476;-60
2022/08/08 11:26:39;;;;;;;9.57;3.13;;;;;;;28.94;71.37;101024.69;5094417;28;20082;-60
2022/08/08 11:29:07;;;;;;;9.35;3.35;;;;;;;28.94;71.94;101021.06;5081033;28;20410;-60
2022/08/08 11:31:47;;;;;;;9.52;3.50;;;;;;;28.82;72.48;101008.91;5091108;28;20021;-60
2022/08/08 11:34:19;;;;;;;7.07;3.13;;;;;;;28.90;71.96;101029.41;5080434;28;20032;-60
2022/08/08 11:36:46;;;;;;;7.90;3.45;;;;;;;28.89;72.85;101025.81;5083606;28;20372;-60
2022/08/08 11:39:16;;;;;;;11.25;4.28;;;;;;;28.90;73.31;101026.59;5088602;28;20032;-61
2022/08/08 11:41:45;;;;;;;10.25;5.00;;;;;;;28.91;73.57;101022.66;5077591;28;20090;-60
2022/08/08 11:44:13;;;;;;;14.18;4.95;;;;;;;28.91;73.78;101028.25;5088269;28;20119;-60
2022/08/08 11:46:40;;;;;;;9.95;5.05;;;;;;;28.91;74.07;101027.44;5083857;28;20044;-60
2022/08/08 11:49:10;;;;;;;10.20;5.70;;;;;;;28.85;74.24;101027.72;5080402;28;20028;-61
2022/08/08 11:51:38;;;;;;;10.43;4.28;;;;;;;28.86;73.81;101025.78;5090873;28;20028;-59
2022/08/08 11:54:06;;;;;;;11.93;3.97;;;;;;;28.89;74.92;101027.81;5090353;28;20115;-60
2022/08/08 11:56:34;;;;;;;10.30;4.45;;;;;;;28.89;75.08;101034.19;5093727;28;20375;-59
2022/08/08 11:59:11;;;;;;;12.02;5.50;;;;;;;28.86;75.70;101036.97;5081146;28;20056;-59
2022/08/08 12:01:38;;;;;;;31.17;6.60;;;;;;;28.84;75.38;101030.91;5090120;28;20048;-59
2022/08/08 12:04:07;;;;;;;12.82;6.47;;;;;;;28.86;75.74;101040.56;5078713;28;20466;-60
2022/08/08 12:06:34;;;;;;;60.97;8.60;;;;;;;28.89;75.79;101041.78;5084569;28;20072;-60